createdAt,value
2023-05-13T00:00:43.519Z,10.13
2023-05-13T00:03:13.024Z,9.47
2023-05-13T00:05:42.404Z,8.17
2023-05-13T00:08:12.153Z,8.67
2023-05-13T00:10:42.843Z,9.57
2023-05-13T00:13:12.198Z,9.80
2023-05-13T00:15:42.282Z,8.77
2023-05-13T00:18:11.498Z,8.73
2023-05-13T00:20:41.188Z,8.97
2023-05-13T00:23:10.398Z,9.43
2023-05-13T00:25:41.525Z,9.07
2023-05-13T00:28:14.211Z,9.53
2023-05-13T00:30:45.822Z,9.43
2023-05-13T00:33:15.116Z,10.33
2023-05-13T00:35:44.296Z,11.07
2023-05-13T00:38:13.602Z,11.03
2023-05-13T00:40:43.414Z,10.37
2023-05-13T00:43:14.363Z,10.07
2023-05-13T00:45:43.840Z,8.67
2023-05-13T00:48:13.177Z,8.10
2023-05-13T00:50:44.927Z,8.07
2023-05-13T00:53:14.704Z,8.53
2023-05-13T00:55:44.631Z,9.00
2023-05-13T00:58:17.574Z,8.73
2023-05-13T01:00:53.467Z,8.67
2023-05-13T01:03:30.799Z,8.13
2023-05-13T01:06:10.280Z,8.40
2023-05-13T01:08:45.009Z,8.43
2023-05-13T01:11:18.760Z,8.17
2023-05-13T01:13:55.009Z,8.00
2023-05-13T01:16:30.729Z,8.83
2023-05-13T01:19:03.991Z,9.90
2023-05-13T01:21:37.962Z,8.07
2023-05-13T01:24:07.830Z,9.03
2023-05-13T01:26:37.163Z,8.57
2023-05-13T01:29:06.680Z,10.47
2023-05-13T01:31:36.308Z,10.93
2023-05-13T01:34:07.345Z,10.80
2023-05-13T01:36:38.200Z,10.60
2023-05-13T01:39:08.999Z,12.37
2023-05-13T01:41:38.441Z,11.50
2023-05-13T01:44:07.887Z,10.67
2023-05-13T01:46:37.160Z,11.53
2023-05-13T01:49:08.040Z,12.43
2023-05-13T01:51:38.993Z,10.63
2023-05-13T01:54:08.515Z,11.03
2023-05-13T01:56:42.119Z,10.20
2023-05-13T01:59:11.660Z,9.83
2023-05-13T02:01:41.432Z,10.07
2023-05-13T02:04:10.763Z,11.23
2023-05-13T02:06:41.493Z,11.63
2023-05-13T02:09:11.087Z,11.20
2023-05-13T02:11:42.051Z,10.57
2023-05-13T02:14:11.165Z,11.90
2023-05-13T02:16:40.527Z,11.87
2023-05-13T02:19:10.011Z,11.83
2023-05-13T02:21:41.485Z,10.60
2023-05-13T02:24:10.674Z,11.40
2023-05-13T02:26:41.815Z,11.40
2023-05-13T02:29:11.224Z,11.27
2023-05-13T02:31:41.506Z,12.40
2023-05-13T02:34:10.992Z,11.83
2023-05-13T02:36:41.733Z,11.37
2023-05-13T02:39:11.561Z,11.70
2023-05-13T02:41:41.083Z,11.80
2023-05-13T02:44:10.367Z,11.27
2023-05-13T02:46:40.797Z,12.10
2023-05-13T02:49:09.978Z,12.67
2023-05-13T02:51:40.604Z,12.13
2023-05-13T02:54:10.140Z,11.73
2023-05-13T02:56:39.511Z,12.60
2023-05-13T02:59:08.848Z,12.00
2023-05-13T03:01:38.177Z,12.07
2023-05-13T03:04:07.410Z,11.33
2023-05-13T03:06:36.608Z,12.53
2023-05-13T03:09:07.479Z,12.43
2023-05-13T03:11:36.684Z,12.50
2023-05-13T03:14:07.973Z,12.20
2023-05-13T03:16:37.243Z,12.67
2023-05-13T03:19:06.650Z,11.60
2023-05-13T03:21:36.041Z,12.20
2023-05-13T03:24:07.647Z,11.63
2023-05-13T03:26:37.337Z,12.37
2023-05-13T03:29:06.863Z,12.17
2023-05-13T03:31:38.701Z,12.83
2023-05-13T03:34:08.638Z,12.10
2023-05-13T03:36:37.951Z,12.37
2023-05-13T03:39:09.174Z,11.70
2023-05-13T03:41:40.209Z,11.00
2023-05-13T03:44:10.120Z,12.30
2023-05-13T03:46:39.541Z,11.93
2023-05-13T03:49:08.786Z,12.53
2023-05-13T03:51:38.285Z,11.73
2023-05-13T03:54:09.892Z,12.30
2023-05-13T03:56:39.090Z,11.87
2023-05-13T03:59:08.365Z,11.50
2023-05-13T04:01:39.026Z,11.77
2023-05-13T04:04:08.695Z,11.33
2023-05-13T04:06:37.873Z,11.97
2023-05-13T04:09:07.966Z,12.00
2023-05-13T04:11:39.424Z,12.27
2023-05-13T04:14:08.651Z,12.37
2023-05-13T04:16:38.143Z,11.53
2023-05-13T04:19:07.585Z,12.20
2023-05-13T04:21:37.104Z,11.70
2023-05-13T04:24:07.504Z,11.23
2023-05-13T04:26:36.695Z,10.52
2023-05-13T04:29:07.516Z,10.32
2023-05-13T04:31:36.766Z,10.50
2023-05-13T04:34:06.034Z,9.98
2023-05-13T04:36:35.581Z,10.27
2023-05-13T04:39:05.162Z,10.80
2023-05-13T04:41:34.907Z,10.48
2023-05-13T04:44:06.440Z,10.63
2023-05-13T04:46:40.674Z,10.43
2023-05-13T04:49:10.042Z,10.65
2023-05-13T04:51:40.323Z,10.70
2023-05-13T04:54:09.958Z,10.15
2023-05-13T04:56:39.320Z,9.82
2023-05-13T04:59:10.296Z,10.35
2023-05-13T05:01:41.536Z,9.70
2023-05-13T05:04:11.458Z,9.00
2023-05-13T05:06:41.237Z,9.93
2023-05-13T05:09:11.396Z,8.75
2023-05-13T05:11:40.925Z,8.60
2023-05-13T05:14:10.367Z,8.90
2023-05-13T05:16:41.213Z,9.10
2023-05-13T05:19:11.506Z,7.80
2023-05-13T05:21:41.457Z,8.50
2023-05-13T05:24:11.601Z,7.75
2023-05-13T05:26:42.862Z,9.90
2023-05-13T05:29:12.576Z,7.30
2023-05-13T05:31:43.938Z,8.57
2023-05-13T05:34:13.670Z,7.35
2023-05-13T05:36:43.126Z,7.55
2023-05-13T05:39:13.443Z,7.85
2023-05-13T05:41:42.862Z,8.90
2023-05-13T05:44:13.758Z,8.10
2023-05-13T05:46:45.136Z,8.57
2023-05-13T05:49:15.529Z,7.82
2023-05-13T05:51:45.020Z,8.38
2023-05-13T05:54:14.457Z,7.20
2023-05-13T05:56:43.727Z,7.72
2023-05-13T05:59:13.404Z,8.25
2023-05-13T06:01:45.168Z,7.40
2023-05-13T06:04:14.699Z,7.85
2023-05-13T06:06:44.144Z,7.22
2023-05-13T06:09:13.819Z,7.70
2023-05-13T06:11:43.354Z,7.72
2023-05-13T06:14:12.600Z,7.30
2023-05-13T06:16:42.001Z,7.75
2023-05-13T06:19:12.860Z,7.80
2023-05-13T06:21:43.402Z,14.30
2023-05-13T06:24:12.920Z,7.53
2023-05-13T06:26:42.968Z,6.97
2023-05-13T06:29:12.426Z,6.80
2023-05-13T06:31:42.089Z,6.78
2023-05-13T06:34:16.901Z,7.05
2023-05-13T06:36:47.153Z,4.93
2023-05-13T06:39:16.721Z,5.15
2023-05-13T06:41:46.814Z,5.43
2023-05-13T06:44:18.893Z,5.53
2023-05-13T06:46:49.344Z,6.90
2023-05-13T06:49:21.667Z,6.03
2023-05-13T06:51:50.930Z,6.68
2023-05-13T06:54:20.256Z,5.68
2023-05-13T06:56:49.418Z,5.88
2023-05-13T06:59:18.789Z,6.22
2023-05-13T07:01:48.050Z,5.90
2023-05-13T07:04:17.468Z,5.50
2023-05-13T07:06:49.276Z,5.70
2023-05-13T07:09:18.539Z,5.35
2023-05-13T07:11:48.004Z,5.65
2023-05-13T07:14:17.342Z,5.97
2023-05-13T07:16:46.774Z,5.78
2023-05-13T07:19:15.952Z,8.88
2023-05-13T07:21:45.238Z,4.72
2023-05-13T07:24:16.394Z,4.95
2023-05-13T07:26:45.731Z,4.13
2023-05-13T07:29:15.313Z,5.07
2023-05-13T07:31:44.529Z,5.10
2023-05-13T07:34:13.798Z,5.57
2023-05-13T07:36:43.037Z,6.85
2023-05-13T07:39:12.286Z,7.35
2023-05-13T07:41:42.921Z,5.10
2023-05-13T07:44:13.512Z,5.18
2023-05-13T07:46:43.074Z,5.38
2023-05-13T07:49:12.190Z,5.13
2023-05-13T07:51:42.195Z,5.10
2023-05-13T07:54:11.703Z,5.30
2023-05-13T07:56:44.478Z,4.45
2023-05-13T07:59:13.811Z,3.97
2023-05-13T08:01:43.730Z,4.35
2023-05-13T08:04:13.280Z,3.80
2023-05-13T08:06:42.834Z,4.10
2023-05-13T08:09:12.922Z,3.90
2023-05-13T08:11:43.827Z,3.55
2023-05-13T08:14:13.188Z,3.45
2023-05-13T08:16:42.505Z,3.30
2023-05-13T08:19:12.047Z,3.08
2023-05-13T08:21:41.362Z,3.42
2023-05-13T08:24:10.686Z,3.08
2023-05-13T08:26:39.917Z,3.72
2023-05-13T08:29:13.172Z,3.53
2023-05-13T08:31:42.773Z,2.92
2023-05-13T08:34:12.218Z,2.47
2023-05-13T08:36:41.489Z,2.88
2023-05-13T08:39:11.271Z,2.97
2023-05-13T08:41:40.611Z,2.85
2023-05-13T08:44:13.558Z,2.80
2023-05-13T08:46:46.292Z,2.50
2023-05-13T08:49:15.952Z,2.63
2023-05-13T08:51:45.669Z,2.40
2023-05-13T08:54:16.758Z,2.03
2023-05-13T08:56:46.014Z,2.50
2023-05-13T08:59:17.256Z,2.80
2023-05-13T09:01:47.337Z,2.80
2023-05-13T09:04:16.791Z,2.40
2023-05-13T09:06:48.136Z,1.83
2023-05-13T09:09:17.603Z,2.17
2023-05-13T09:11:49.816Z,2.65
2023-05-13T09:14:22.182Z,2.60
2023-05-13T09:16:51.679Z,2.72
2023-05-13T09:19:21.263Z,2.35
2023-05-13T09:21:50.775Z,2.70
2023-05-13T09:24:21.751Z,2.75
2023-05-13T09:26:52.472Z,2.58
2023-05-13T09:29:24.944Z,2.40
2023-05-13T09:31:56.112Z,2.25
2023-05-13T09:34:29.887Z,2.30
2023-05-13T09:37:04.932Z,2.53
2023-05-13T09:39:36.039Z,1.92
2023-05-13T09:42:05.776Z,2.30
2023-05-13T09:44:36.607Z,2.35
2023-05-13T09:47:06.011Z,2.30
2023-05-13T09:49:35.434Z,2.40
2023-05-13T09:52:10.272Z,2.40
2023-05-13T09:54:39.653Z,2.50
2023-05-13T09:57:09.154Z,2.38
2023-05-13T09:59:39.973Z,2.25
2023-05-13T10:02:10.468Z,2.20
2023-05-13T10:04:40.140Z,2.47
2023-05-13T10:07:11.335Z,2.75
2023-05-13T10:09:42.043Z,2.55
2023-05-13T10:12:13.821Z,2.70
2023-05-13T10:14:45.661Z,2.60
2023-05-13T10:17:15.902Z,2.63
2023-05-13T10:19:45.800Z,2.47
2023-05-13T10:22:15.712Z,2.60
2023-05-13T10:24:45.736Z,2.60
2023-05-13T10:27:15.755Z,2.67
2023-05-13T10:29:47.073Z,3.00
2023-05-13T10:32:16.686Z,2.70
2023-05-13T10:34:46.931Z,2.60
2023-05-13T10:37:35.896Z,2.75
2023-05-13T10:40:30.075Z,2.53
2023-05-13T10:43:14.293Z,2.70
2023-05-13T10:45:48.820Z,2.35
2023-05-13T10:48:19.537Z,2.50
2023-05-13T10:50:56.834Z,2.50
2023-05-13T10:53:29.420Z,2.60
2023-05-13T10:56:00.722Z,2.65
2023-05-13T10:58:34.352Z,2.22
2023-05-13T11:01:28.516Z,2.85
2023-05-13T11:04:00.579Z,2.38
2023-05-13T11:06:35.570Z,2.65
2023-05-13T11:09:08.093Z,2.55
2023-05-13T11:11:38.113Z,2.30
2023-05-13T11:14:17.241Z,2.50
2023-05-13T11:16:55.573Z,2.22
2023-05-13T11:19:27.975Z,2.60
2023-05-13T11:21:59.243Z,2.60
2023-05-13T11:24:28.680Z,2.28
2023-05-13T11:26:59.745Z,2.42
2023-05-13T11:29:31.130Z,2.55
2023-05-13T11:32:03.274Z,2.88
2023-05-13T11:34:33.905Z,2.50
2023-05-13T11:37:10.615Z,2.45
2023-05-13T11:39:42.645Z,2.40
2023-05-13T11:42:13.095Z,2.38
2023-05-13T11:44:52.516Z,2.60
2023-05-13T11:47:29.571Z,2.55
2023-05-13T11:49:59.433Z,2.60
2023-05-13T11:52:29.648Z,2.33
2023-05-13T11:54:59.426Z,2.10
2023-05-13T11:57:32.775Z,2.40
2023-05-13T12:00:04.974Z,2.63
2023-05-13T12:02:38.822Z,2.85
2023-05-13T12:05:09.904Z,2.40
2023-05-13T12:07:40.455Z,2.47
2023-05-13T12:10:10.374Z,2.10
2023-05-13T12:12:40.788Z,2.67
2023-05-13T12:15:12.924Z,2.40
2023-05-13T12:17:46.966Z,2.47
2023-05-13T12:20:18.230Z,2.38
2023-05-13T12:22:57.876Z,2.50
2023-05-13T12:25:48.041Z,2.60
2023-05-13T12:28:18.804Z,2.58
2023-05-13T12:30:53.853Z,2.47
2023-05-13T12:33:26.114Z,2.90
2023-05-13T12:35:57.263Z,2.05
2023-05-13T12:38:27.012Z,2.38
2023-05-13T12:40:56.558Z,2.17
2023-05-13T12:43:25.805Z,2.60
2023-05-13T12:45:56.704Z,2.20
2023-05-13T12:48:27.589Z,2.17
2023-05-13T12:50:59.091Z,2.47
2023-05-13T12:53:29.894Z,2.40
2023-05-13T12:55:59.260Z,2.38
2023-05-13T12:58:28.489Z,2.47
2023-05-13T13:00:57.731Z,2.25
2023-05-13T13:03:28.671Z,2.20
2023-05-13T13:05:59.437Z,2.30
2023-05-13T13:08:30.538Z,2.67
2023-05-13T13:11:01.738Z,2.47
2023-05-13T13:13:31.001Z,2.22
2023-05-13T13:16:00.732Z,2.25
2023-05-13T13:18:31.651Z,2.25
2023-05-13T13:21:00.955Z,2.45
2023-05-13T13:23:30.292Z,2.10
2023-05-13T13:25:59.603Z,3.13
2023-05-13T13:28:29.253Z,2.08
2023-05-13T13:30:59.836Z,2.20
2023-05-13T13:33:30.971Z,2.13
2023-05-13T13:36:00.529Z,2.58
2023-05-13T13:38:30.147Z,2.42
2023-05-13T13:40:59.326Z,2.50
2023-05-13T13:43:28.708Z,2.17
2023-05-13T13:45:58.352Z,2.40
2023-05-13T13:48:27.810Z,2.70
2023-05-13T13:50:59.801Z,2.58
2023-05-13T13:53:29.180Z,2.58
2023-05-13T13:55:58.519Z,2.50
2023-05-13T13:58:27.728Z,2.42
2023-05-13T14:00:57.029Z,2.75
2023-05-13T14:03:26.379Z,2.60
2023-05-13T14:05:56.275Z,2.58
2023-05-13T14:08:27.179Z,2.40
2023-05-13T14:10:56.298Z,2.20
2023-05-13T14:13:25.551Z,1.90
2023-05-13T14:15:54.765Z,2.33
2023-05-13T14:18:24.194Z,1.80
2023-05-13T14:20:53.567Z,2.20
2023-05-13T14:23:22.836Z,2.03
2023-05-13T14:25:53.487Z,1.70
2023-05-13T14:28:24.514Z,2.10
2023-05-13T14:30:54.552Z,1.77
2023-05-13T14:33:23.909Z,1.95
2023-05-13T14:35:53.168Z,2.17
2023-05-13T14:38:22.292Z,2.08
2023-05-13T14:40:53.165Z,2.63
2023-05-13T14:43:22.397Z,2.25
2023-05-13T14:45:51.899Z,1.92
2023-05-13T14:48:21.578Z,2.13
2023-05-13T14:50:51.167Z,1.98
2023-05-13T14:53:20.421Z,2.40
2023-05-13T14:55:51.367Z,2.00
2023-05-13T14:58:22.715Z,2.30
2023-05-13T15:00:52.144Z,2.13
2023-05-13T15:03:21.476Z,2.30
2023-05-13T15:05:51.882Z,2.40
2023-05-13T15:08:21.498Z,2.20
2023-05-13T15:10:51.209Z,2.50
2023-05-13T15:13:22.041Z,2.30
2023-05-13T15:15:51.650Z,2.47
2023-05-13T15:18:20.898Z,2.20
2023-05-13T15:20:50.119Z,2.42
2023-05-13T15:23:19.412Z,2.20
2023-05-13T15:25:48.946Z,2.35
2023-05-13T15:28:18.178Z,2.35
2023-05-13T15:30:48.923Z,2.55
2023-05-13T15:33:18.287Z,2.78
2023-05-13T15:35:47.739Z,2.33
2023-05-13T15:38:17.196Z,2.47
2023-05-13T15:40:47.564Z,2.50
2023-05-13T15:43:16.920Z,2.55
2023-05-13T15:45:50.430Z,2.50
2023-05-13T15:48:19.920Z,2.30
2023-05-13T15:50:49.367Z,2.53
2023-05-13T15:53:18.539Z,2.88
2023-05-13T15:55:47.798Z,2.78
2023-05-13T15:58:16.968Z,2.05
2023-05-13T16:00:47.630Z,2.45
2023-05-13T16:03:17.409Z,2.35
2023-05-13T16:05:47.541Z,2.00
2023-05-13T16:08:16.717Z,2.30
2023-05-13T16:10:45.931Z,3.20
2023-05-13T16:13:15.272Z,3.63
2023-05-13T16:15:44.519Z,2.70
2023-05-13T16:18:15.434Z,2.53
2023-05-13T16:20:44.746Z,2.63
2023-05-13T16:23:14.025Z,2.42
2023-05-13T16:25:44.967Z,2.40
2023-05-13T16:28:14.614Z,2.60
2023-05-13T16:30:44.497Z,2.15
2023-05-13T16:33:16.211Z,2.40
2023-05-13T16:35:45.530Z,2.20
2023-05-13T16:38:15.137Z,2.63
2023-05-13T16:40:44.557Z,2.50
2023-05-13T16:43:13.897Z,2.63
2023-05-13T16:45:44.367Z,2.75
2023-05-13T16:48:15.399Z,2.58
2023-05-13T16:50:45.076Z,2.95
2023-05-13T16:53:14.627Z,2.97
2023-05-13T16:55:44.442Z,2.28
2023-05-13T16:58:14.249Z,2.63
2023-05-13T17:00:43.889Z,2.50
2023-05-13T17:03:15.008Z,2.28
2023-05-13T17:05:45.638Z,2.60
2023-05-13T17:08:17.434Z,2.72
2023-05-13T17:10:47.128Z,3.25
2023-05-13T17:13:17.402Z,2.22
2023-05-13T17:15:48.508Z,2.90
2023-05-13T17:18:19.922Z,2.42
2023-05-13T17:20:49.250Z,2.17
2023-05-13T17:23:18.776Z,2.28
2023-05-13T17:25:48.599Z,2.10
2023-05-13T17:28:18.346Z,2.22
2023-05-13T17:30:48.322Z,2.45
2023-05-13T17:33:19.928Z,2.45
2023-05-13T17:35:49.739Z,3.33
2023-05-13T17:38:19.655Z,2.17
2023-05-13T17:40:49.760Z,2.70
2023-05-13T17:43:19.536Z,2.50
2023-05-13T17:45:49.175Z,2.17
2023-05-13T17:48:20.594Z,2.40
2023-05-13T17:50:50.355Z,2.17
2023-05-13T17:53:20.331Z,2.22
2023-05-13T17:55:50.525Z,2.13
2023-05-13T17:58:20.465Z,2.40
2023-05-13T18:00:50.812Z,2.65
2023-05-13T18:03:23.268Z,2.47
2023-05-13T18:05:53.135Z,2.35
2023-05-13T18:08:23.097Z,2.30
2023-05-13T18:10:53.096Z,2.17
2023-05-13T18:13:23.047Z,2.88
2023-05-13T18:15:53.091Z,2.70
2023-05-13T18:18:24.418Z,2.60
2023-05-13T18:20:54.284Z,2.90
2023-05-13T18:23:24.194Z,3.38
2023-05-13T18:25:56.066Z,3.08
2023-05-13T18:28:26.537Z,3.58
2023-05-13T18:30:56.650Z,3.53
2023-05-13T18:33:27.929Z,3.25
2023-05-13T18:35:58.009Z,32.72
2023-05-13T18:38:27.932Z,9.27
2023-05-13T18:41:01.957Z,5.47
2023-05-13T18:43:31.901Z,3.70
2023-05-13T18:46:02.006Z,3.80
2023-05-13T18:48:33.339Z,3.90
2023-05-13T18:51:04.223Z,3.35
2023-05-13T18:53:34.312Z,3.20
2023-05-13T18:56:04.459Z,3.40
2023-05-13T18:58:34.672Z,3.67
2023-05-13T19:01:05.023Z,4.40
2023-05-13T19:03:37.047Z,4.50
2023-05-13T19:06:08.518Z,4.57
2023-05-13T19:08:38.850Z,4.47
2023-05-13T19:11:09.602Z,4.50
2023-05-13T19:13:46.876Z,4.50
2023-05-13T19:16:17.917Z,4.22
2023-05-13T19:18:49.718Z,4.53
2023-05-13T19:21:20.166Z,4.10
2023-05-13T19:23:50.222Z,4.38
2023-05-13T19:26:20.706Z,7.57
2023-05-13T19:28:51.891Z,9.98
2023-05-13T19:31:22.722Z,5.68
2023-05-13T19:33:54.616Z,3.53
2023-05-13T19:36:26.630Z,3.80
2023-05-13T19:38:58.362Z,3.53
2023-05-13T19:41:29.477Z,3.80
2023-05-13T19:43:59.528Z,4.20
2023-05-13T19:46:31.618Z,4.05
2023-05-13T19:49:03.490Z,4.07
2023-05-13T19:51:34.037Z,3.97
2023-05-13T19:54:06.969Z,4.53
2023-05-13T19:56:37.778Z,4.38
2023-05-13T19:59:08.162Z,4.85
2023-05-13T20:01:38.836Z,4.88
2023-05-13T20:04:12.379Z,4.55
2023-05-13T20:06:42.630Z,4.00
2023-05-13T20:09:13.823Z,4.33
2023-05-13T20:11:43.886Z,5.40
2023-05-13T20:14:13.905Z,6.50
2023-05-13T20:16:44.460Z,5.35
2023-05-13T20:19:16.436Z,6.05
2023-05-13T20:21:46.933Z,6.22
2023-05-13T20:24:17.018Z,6.97
2023-05-13T20:26:47.249Z,7.93
2023-05-13T20:29:17.242Z,8.10
2023-05-13T20:31:47.928Z,8.33
2023-05-13T20:34:19.625Z,9.73
2023-05-13T20:36:50.050Z,32.83
2023-05-13T20:39:20.358Z,24.83
2023-05-13T20:41:50.568Z,15.83
2023-05-13T20:44:21.484Z,10.93
2023-05-13T20:46:51.978Z,7.10
2023-05-13T20:49:23.616Z,6.27
2023-05-13T20:51:53.871Z,7.20
2023-05-13T20:54:24.535Z,6.00
2023-05-13T20:56:54.710Z,5.27
2023-05-13T20:59:25.031Z,5.10
2023-05-13T21:01:54.814Z,4.83
2023-05-13T21:04:27.205Z,5.40
2023-05-13T21:06:57.263Z,5.53
2023-05-13T21:09:27.254Z,5.70
2023-05-13T21:11:57.349Z,5.47
2023-05-13T21:14:27.201Z,5.53
2023-05-13T21:16:56.996Z,5.50
2023-05-13T21:19:27.825Z,5.67
2023-05-13T21:21:57.392Z,5.97
2023-05-13T21:24:27.118Z,5.23
2023-05-13T21:26:56.688Z,5.53
2023-05-13T21:29:26.351Z,5.47
2023-05-13T21:31:55.728Z,5.47
2023-05-13T21:34:26.874Z,5.80
2023-05-13T21:36:56.257Z,6.33
2023-05-13T21:39:25.555Z,6.00
2023-05-13T21:41:55.076Z,6.70
2023-05-13T21:44:25.123Z,5.90
2023-05-13T21:46:54.474Z,6.87
2023-05-13T21:49:23.786Z,6.20
2023-05-13T21:51:54.667Z,6.53
2023-05-13T21:54:24.038Z,6.67
2023-05-13T21:56:53.405Z,6.20
2023-05-13T21:59:22.702Z,6.93
2023-05-13T22:01:51.979Z,6.60
2023-05-13T22:04:21.352Z,6.60
2023-05-13T22:06:50.728Z,6.30
2023-05-13T22:09:21.638Z,6.53
2023-05-13T22:11:51.415Z,6.70
2023-05-13T22:14:20.905Z,6.30
2023-05-13T22:17:07.069Z,7.07
2023-05-13T22:19:38.227Z,6.77
2023-05-13T22:22:07.654Z,6.43
2023-05-13T22:24:38.444Z,6.97
2023-05-13T22:27:07.952Z,6.47
2023-05-13T22:29:37.487Z,7.50
2023-05-13T22:32:07.395Z,6.43
2023-05-13T22:34:37.079Z,6.50
2023-05-13T22:37:07.085Z,6.70
2023-05-13T22:39:38.304Z,6.60
2023-05-13T22:42:08.060Z,6.63
2023-05-13T22:44:37.252Z,6.50
2023-05-13T22:47:07.125Z,6.93
2023-05-13T22:49:36.475Z,7.13
2023-05-13T22:52:06.165Z,6.70
2023-05-13T22:54:35.412Z,6.80
2023-05-13T22:57:06.524Z,7.00
2023-05-13T22:59:36.421Z,7.30
2023-05-13T23:02:06.082Z,6.77
2023-05-13T23:04:35.420Z,7.70
2023-05-13T23:07:04.871Z,7.17
2023-05-13T23:09:34.295Z,6.53
2023-05-13T23:12:03.786Z,7.37
2023-05-13T23:14:34.373Z,7.20
2023-05-13T23:17:03.497Z,7.07
2023-05-13T23:19:32.848Z,7.03
2023-05-13T23:22:01.986Z,7.80
2023-05-13T23:24:31.110Z,7.80
2023-05-13T23:27:00.445Z,8.27
2023-05-13T23:29:29.647Z,8.33
2023-05-13T23:32:00.287Z,7.93
2023-05-13T23:34:29.634Z,7.63
2023-05-13T23:36:59.176Z,8.10
2023-05-13T23:39:28.595Z,7.07
2023-05-13T23:41:58.134Z,7.47
2023-05-13T23:44:27.569Z,7.60
2023-05-13T23:46:56.852Z,7.23
2023-05-13T23:49:27.463Z,6.90
2023-05-13T23:51:56.694Z,7.50
2023-05-13T23:54:25.960Z,6.97
2023-05-13T23:56:55.266Z,7.70
2023-05-13T23:59:24.540Z,7.83
